sensor_id;sensor_type;location;lat;lon;timestamp;P1;P2;P0
24012;PMS7003;12220;50.194;18.948;2024-02-14T00:01:24;67;53;33
24012;PMS7003;12220;50.194;18.948;2024-02-14T00:03:35;69;52;33
24012;PMS7003;12220;50.194;18.948;2024-02-14T00:05:39;76;56;36
24012;PMS7003;12220;50.194;18.948;2024-02-14T00:07:41;73;58;34
24012;PMS7003;12220;50.194;18.948;2024-02-14T00:09:43;65;48;33
24012;PMS7003;12220;50.194;18.948;2024-02-14T00:11:51;66;50;32
24012;PMS7003;12220;50.194;18.948;2024-02-14T00:13:52;71;55;33
24012;PMS7003;12220;50.194;18.948;2024-02-14T00:15:56;65;52;31
24012;PMS7003;12220;50.194;18.948;2024-02-14T00:17:58;69;52;31
24012;PMS7003;12220;50.194;18.948;2024-02-14T00:20:07;73;52;32
24012;PMS7003;12220;50.194;18.948;2024-02-14T00:22:12;68;52;31
24012;PMS7003;12220;50.194;18.948;2024-02-14T00:24:14;62;48;32
24012;PMS7003;12220;50.194;18.948;2024-02-14T00:26:16;66;52;32
24012;PMS7003;12220;50.194;18.948;2024-02-14T00:28:22;63;50;33
24012;PMS7003;12220;50.194;18.948;2024-02-14T00:30:27;63;49;30
24012;PMS7003;12220;50.194;18.948;2024-02-14T00:32:31;64;50;31
24012;PMS7003;12220;50.194;18.948;2024-02-14T00:34:34;64;48;31
24012;PMS7003;12220;50.194;18.948;2024-02-14T00:36:38;54;46;27
24012;PMS7003;12220;50.194;18.948;2024-02-14T00:38:40;61;46;29
24012;PMS7003;12220;50.194;18.948;2024-02-14T00:40:41;60;48;31
24012;PMS7003;12220;50.194;18.948;2024-02-14T00:42:42;65;49;31
24012;PMS7003;12220;50.194;18.948;2024-02-14T00:44:53;62;50;32
24012;PMS7003;12220;50.194;18.948;2024-02-14T00:46:56;63;49;30
24012;PMS7003;12220;50.194;18.948;2024-02-14T00:49:00;66;49;31
24012;PMS7003;12220;50.194;18.948;2024-02-14T00:51:01;65;51;31
24012;PMS7003;12220;50.194;18.948;2024-02-14T00:53:09;63;45;30
24012;PMS7003;12220;50.194;18.948;2024-02-14T00:55:10;68;51;31
24012;PMS7003;12220;50.194;18.948;2024-02-14T00:57:12;59;47;30
24012;PMS7003;12220;50.194;18.948;2024-02-14T00:59:13;60;48;32
24012;PMS7003;12220;50.194;18.948;2024-02-14T01:01:24;66;49;30
24012;PMS7003;12220;50.194;18.948;2024-02-14T01:03:26;63;48;30
24012;PMS7003;12220;50.194;18.948;2024-02-14T01:05:27;66;48;31
24012;PMS7003;12220;50.194;18.948;2024-02-14T01:07:28;61;48;30
24012;PMS7003;12220;50.194;18.948;2024-02-14T01:09:39;66;51;31
24012;PMS7003;12220;50.194;18.948;2024-02-14T01:11:40;61;47;29
24012;PMS7003;12220;50.194;18.948;2024-02-14T01:13:42;64;48;29
24012;PMS7003;12220;50.194;18.948;2024-02-14T01:15:43;67;51;31
24012;PMS7003;12220;50.194;18.948;2024-02-14T01:17:55;67;47;30
24012;PMS7003;12220;50.194;18.948;2024-02-14T01:19:57;64;49;31
24012;PMS7003;12220;50.194;18.948;2024-02-14T01:21:58;66;49;31
24012;PMS7003;12220;50.194;18.948;2024-02-14T01:24:00;65;49;31
24012;PMS7003;12220;50.194;18.948;2024-02-14T01:26:10;67;49;31
24012;PMS7003;12220;50.194;18.948;2024-02-14T01:28:12;66;51;31
24012;PMS7003;12220;50.194;18.948;2024-02-14T01:30:13;63;50;31
24012;PMS7003;12220;50.194;18.948;2024-02-14T01:32:15;64;51;33
24012;PMS7003;12220;50.194;18.948;2024-02-14T01:34:26;67;50;30
24012;PMS7003;12220;50.194;18.948;2024-02-14T01:36:29;56;46;32
24012;PMS7003;12220;50.194;18.948;2024-02-14T01:38:30;61;47;29
24012;PMS7003;12220;50.194;18.948;2024-02-14T01:40:35;65;48;31
24012;PMS7003;12220;50.194;18.948;2024-02-14T01:42:41;63;48;29
24012;PMS7003;12220;50.194;18.948;2024-02-14T01:44:42;60;44;28
24012;PMS7003;12220;50.194;18.948;2024-02-14T01:46:44;67;49;31
24012;PMS7003;12220;50.194;18.948;2024-02-14T01:48:45;72;52;31
24012;PMS7003;12220;50.194;18.948;2024-02-14T01:50:57;62;48;30
24012;PMS7003;12220;50.194;18.948;2024-02-14T01:53:00;61;47;30
24012;PMS7003;12220;50.194;18.948;2024-02-14T01:55:02;64;49;30
24012;PMS7003;12220;50.194;18.948;2024-02-14T01:57:07;61;49;31
24012;PMS7003;12220;50.194;18.948;2024-02-14T01:59:12;54;42;27
24012;PMS7003;12220;50.194;18.948;2024-02-14T02:01:17;68;53;31
24012;PMS7003;12220;50.194;18.948;2024-02-14T02:03:19;56;47;30
24012;PMS7003;12220;50.194;18.948;2024-02-14T02:05:21;63;47;30
24012;PMS7003;12220;50.194;18.948;2024-02-14T02:07:26;53;45;29
24012;PMS7003;12220;50.194;18.948;2024-02-14T02:09:28;57;44;28
24012;PMS7003;12220;50.194;18.948;2024-02-14T02:13:45;57;47;29
24012;PMS7003;12220;50.194;18.948;2024-02-14T02:15:47;58;46;29
24012;PMS7003;12220;50.194;18.948;2024-02-14T02:17:48;52;41;27
24012;PMS7003;12220;50.194;18.948;2024-02-14T02:19:53;59;45;24
24012;PMS7003;12220;50.194;18.948;2024-02-14T02:21:55;57;45;29
24012;PMS7003;12220;50.194;18.948;2024-02-14T02:23:58;65;50;30
24012;PMS7003;12220;50.194;18.948;2024-02-14T02:26:01;61;46;28
24012;PMS7003;12220;50.194;18.948;2024-02-14T02:28:03;59;45;30
24012;PMS7003;12220;50.194;18.948;2024-02-14T02:30:07;60;48;31
24012;PMS7003;12220;50.194;18.948;2024-02-14T02:32:14;69;50;29
24012;PMS7003;12220;50.194;18.948;2024-02-14T02:34:18;57;44;25
24012;PMS7003;12220;50.194;18.948;2024-02-14T02:36:19;66;49;31
24012;PMS7003;12220;50.194;18.948;2024-02-14T02:38:23;66;46;30
24012;PMS7003;12220;50.194;18.948;2024-02-14T02:40:29;55;43;30
24012;PMS7003;12220;50.194;18.948;2024-02-14T02:42:31;66;50;30
24012;PMS7003;12220;50.194;18.948;2024-02-14T02:44:32;65;50;32
24012;PMS7003;12220;50.194;18.948;2024-02-14T02:46:34;71;56;33
24012;PMS7003;12220;50.194;18.948;2024-02-14T02:48:44;74;54;31
24012;PMS7003;12220;50.194;18.948;2024-02-14T02:50:48;73;51;31
24012;PMS7003;12220;50.194;18.948;2024-02-14T02:52:50;72;57;34
24012;PMS7003;12220;50.194;18.948;2024-02-14T02:54:51;75;63;37
24012;PMS7003;12220;50.194;18.948;2024-02-14T02:56:59;75;63;38
24012;PMS7003;12220;50.194;18.948;2024-02-14T02:59:04;79;61;38
24012;PMS7003;12220;50.194;18.948;2024-02-14T03:01:08;80;68;36
24012;PMS7003;12220;50.194;18.948;2024-02-14T03:03:10;82;62;39
24012;PMS7003;12220;50.194;18.948;2024-02-14T03:05:15;81;66;42
24012;PMS7003;12220;50.194;18.948;2024-02-14T03:07:20;82;66;38
24012;PMS7003;12220;50.194;18.948;2024-02-14T03:09:23;77;68;41
24012;PMS7003;12220;50.194;18.948;2024-02-14T03:11:28;85;69;42
24012;PMS7003;12220;50.194;18.948;2024-02-14T03:13:30;79;60;36
24012;PMS7003;12220;50.194;18.948;2024-02-14T03:15:32;78;66;38
24012;PMS7003;12220;50.194;18.948;2024-02-14T03:17:34;98;83;44
24012;PMS7003;12220;50.194;18.948;2024-02-14T03:19:36;77;61;34
24012;PMS7003;12220;50.194;18.948;2024-02-14T03:21:45;93;74;44
24012;PMS7003;12220;50.194;18.948;2024-02-14T03:23:47;85;73;46
24012;PMS7003;12220;50.194;18.948;2024-02-14T03:25:49;84;70;39
24012;PMS7003;12220;50.194;18.948;2024-02-14T03:27:52;80;70;43
24012;PMS7003;12220;50.194;18.948;2024-02-14T03:30:00;87;75;43
24012;PMS7003;12220;50.194;18.948;2024-02-14T03:32:04;78;68;40
24012;PMS7003;12220;50.194;18.948;2024-02-14T03:34:06;71;54;36
24012;PMS7003;12220;50.194;18.948;2024-02-14T03:36:07;84;68;42
24012;PMS7003;12220;50.194;18.948;2024-02-14T03:40:37;73;60;37
24012;PMS7003;12220;50.194;18.948;2024-02-14T03:42:39;82;67;38
24012;PMS7003;12220;50.194;18.948;2024-02-14T03:44:40;79;64;39
24012;PMS7003;12220;50.194;18.948;2024-02-14T03:46:42;78;59;35
24012;PMS7003;12220;50.194;18.948;2024-02-14T03:48:53;73;58;34
24012;PMS7003;12220;50.194;18.948;2024-02-14T03:50:55;74;55;33
24012;PMS7003;12220;50.194;18.948;2024-02-14T03:52:57;67;53;32
24012;PMS7003;12220;50.194;18.948;2024-02-14T03:54:59;67;51;33
24012;PMS7003;12220;50.194;18.948;2024-02-14T03:57:08;67;49;32
24012;PMS7003;12220;50.194;18.948;2024-02-14T03:59:09;65;51;30
24012;PMS7003;12220;50.194;18.948;2024-02-14T04:01:11;62;48;28
24012;PMS7003;12220;50.194;18.948;2024-02-14T04:03:12;68;53;33
24012;PMS7003;12220;50.194;18.948;2024-02-14T04:05:23;64;48;29
24012;PMS7003;12220;50.194;18.948;2024-02-14T04:07:24;53;42;26
24012;PMS7003;12220;50.194;18.948;2024-02-14T04:09:26;64;49;31
24012;PMS7003;12220;50.194;18.948;2024-02-14T04:11:27;56;45;30
24012;PMS7003;12220;50.194;18.948;2024-02-14T04:13:38;59;45;28
24012;PMS7003;12220;50.194;18.948;2024-02-14T04:15:41;61;44;27
24012;PMS7003;12220;50.194;18.948;2024-02-14T04:17:43;59;44;28
24012;PMS7003;12220;50.194;18.948;2024-02-14T04:19:47;57;44;28
24012;PMS7003;12220;50.194;18.948;2024-02-14T04:21:53;59;45;28
24012;PMS7003;12220;50.194;18.948;2024-02-14T04:23:56;63;49;28
24012;PMS7003;12220;50.194;18.948;2024-02-14T04:25:57;55;44;28
24012;PMS7003;12220;50.194;18.948;2024-02-14T04:27:58;57;44;27
24012;PMS7003;12220;50.194;18.948;2024-02-14T04:30:09;56;42;27
24012;PMS7003;12220;50.194;18.948;2024-02-14T04:32:11;60;46;28
24012;PMS7003;12220;50.194;18.948;2024-02-14T04:34:13;59;47;28
24012;PMS7003;12220;50.194;18.948;2024-02-14T04:36:15;57;44;28
24012;PMS7003;12220;50.194;18.948;2024-02-14T04:38:24;56;43;28
24012;PMS7003;12220;50.194;18.948;2024-02-14T04:40:25;55;44;27
24012;PMS7003;12220;50.194;18.948;2024-02-14T04:42:26;47;41;26
24012;PMS7003;12220;50.194;18.948;2024-02-14T04:44:28;62;45;28
24012;PMS7003;12220;50.194;18.948;2024-02-14T04:46:39;58;45;29
24012;PMS7003;12220;50.194;18.948;2024-02-14T04:48:45;55;46;29
24012;PMS7003;12220;50.194;18.948;2024-02-14T04:50:46;57;42;26
24012;PMS7003;12220;50.194;18.948;2024-02-14T04:52:47;63;45;28
24012;PMS7003;12220;50.194;18.948;2024-02-14T04:54:54;58;42;28
24012;PMS7003;12220;50.194;18.948;2024-02-14T04:56:57;69;51;31
24012;PMS7003;12220;50.194;18.948;2024-02-14T04:58:58;64;50;29
24012;PMS7003;12220;50.194;18.948;2024-02-14T05:01:00;61;47;29
24012;PMS7003;12220;50.194;18.948;2024-02-14T05:03:09;64;48;32
24012;PMS7003;12220;50.194;18.948;2024-02-14T05:05:13;61;45;28
24012;PMS7003;12220;50.194;18.948;2024-02-14T05:07:15;56;46;28
24012;PMS7003;12220;50.194;18.948;2024-02-14T05:09:17;55;45;27
24012;PMS7003;12220;50.194;18.948;2024-02-14T05:11:25;61;46;30
24012;PMS7003;12220;50.194;18.948;2024-02-14T05:13:26;58;47;29
24012;PMS7003;12220;50.194;18.948;2024-02-14T05:15:27;63;49;30
24012;PMS7003;12220;50.194;18.948;2024-02-14T05:17:29;59;46;29
24012;PMS7003;12220;50.194;18.948;2024-02-14T05:19:43;66;48;30
24012;PMS7003;12220;50.194;18.948;2024-02-14T05:21:44;57;47;28
24012;PMS7003;12220;50.194;18.948;2024-02-14T05:23:49;69;55;30
24012;PMS7003;12220;50.194;18.948;2024-02-14T05:25:51;62;50;30
24012;PMS7003;12220;50.194;18.948;2024-02-14T05:27:55;60;45;29
24012;PMS7003;12220;50.194;18.948;2024-02-14T05:29:56;63;48;29
24012;PMS7003;12220;50.194;18.948;2024-02-14T05:31:58;70;49;29
24012;PMS7003;12220;50.194;18.948;2024-02-14T05:33:59;60;45;29
24012;PMS7003;12220;50.194;18.948;2024-02-14T05:36:10;59;47;28
24012;PMS7003;12220;50.194;18.948;2024-02-14T05:38:12;63;47;27
24012;PMS7003;12220;50.194;18.948;2024-02-14T05:40:13;61;48;30
24012;PMS7003;12220;50.194;18.948;2024-02-14T05:42:15;60;47;28
24012;PMS7003;12220;50.194;18.948;2024-02-14T05:44:26;53;45;29
24012;PMS7003;12220;50.194;18.948;2024-02-14T05:46:32;56;46;29
24012;PMS7003;12220;50.194;18.948;2024-02-14T05:48:34;53;43;27
24012;PMS7003;12220;50.194;18.948;2024-02-14T05:50:36;62;44;27
24012;PMS7003;12220;50.194;18.948;2024-02-14T05:52:41;59;43;28
24012;PMS7003;12220;50.194;18.948;2024-02-14T05:54:42;58;45;28
24012;PMS7003;12220;50.194;18.948;2024-02-14T05:56:44;52;43;27
24012;PMS7003;12220;50.194;18.948;2024-02-14T05:58:45;52;41;26
24012;PMS7003;12220;50.194;18.948;2024-02-14T06:00:56;61;45;26
24012;PMS7003;12220;50.194;18.948;2024-02-14T06:02:57;57;43;26
24012;PMS7003;12220;50.194;18.948;2024-02-14T06:05:00;54;43;27
24012;PMS7003;12220;50.194;18.948;2024-02-14T06:07:02;53;44;28
24012;PMS7003;12220;50.194;18.948;2024-02-14T06:09:11;57;43;26
24012;PMS7003;12220;50.194;18.948;2024-02-14T06:11:13;51;41;28
24012;PMS7003;12220;50.194;18.948;2024-02-14T06:13:16;49;39;28
24012;PMS7003;12220;50.194;18.948;2024-02-14T06:15:17;59;46;30
24012;PMS7003;12220;50.194;18.948;2024-02-14T06:17:27;63;48;29
24012;PMS7003;12220;50.194;18.948;2024-02-14T06:19:28;63;48;30
24012;PMS7003;12220;50.194;18.948;2024-02-14T06:21:31;67;50;32
24012;PMS7003;12220;50.194;18.948;2024-02-14T06:23:33;60;46;29
24012;PMS7003;12220;50.194;18.948;2024-02-14T06:25:42;67;50;32
24012;PMS7003;12220;50.194;18.948;2024-02-14T06:27:43;67;50;30
24012;PMS7003;12220;50.194;18.948;2024-02-14T06:29:48;70;56;33
24012;PMS7003;12220;50.194;18.948;2024-02-14T06:31:50;65;47;28
24012;PMS7003;12220;50.194;18.948;2024-02-14T06:33:57;69;51;29
24012;PMS7003;12220;50.194;18.948;2024-02-14T06:35:58;66;47;31
24012;PMS7003;12220;50.194;18.948;2024-02-14T06:38:00;62;50;31
24012;PMS7003;12220;50.194;18.948;2024-02-14T06:40:01;64;52;31
24012;PMS7003;12220;50.194;18.948;2024-02-14T06:42:12;67;51;31
24012;PMS7003;12220;50.194;18.948;2024-02-14T06:44:14;70;53;33
24012;PMS7003;12220;50.194;18.948;2024-02-14T06:46:15;68;49;30
24012;PMS7003;12220;50.194;18.948;2024-02-14T06:48:16;63;48;30
24012;PMS7003;12220;50.194;18.948;2024-02-14T06:50:28;61;49;30
24012;PMS7003;12220;50.194;18.948;2024-02-14T06:52:30;64;49;31
24012;PMS7003;12220;50.194;18.948;2024-02-14T06:54:31;65;49;31
24012;PMS7003;12220;50.194;18.948;2024-02-14T06:56:32;72;51;31
24012;PMS7003;12220;50.194;18.948;2024-02-14T06:58:43;69;53;32
24012;PMS7003;12220;50.194;18.948;2024-02-14T07:00:45;68;54;33
24012;PMS7003;12220;50.194;18.948;2024-02-14T07:02:46;68;52;30
24012;PMS7003;12220;50.194;18.948;2024-02-14T07:04:49;67;49;30
24012;PMS7003;12220;50.194;18.948;2024-02-14T07:06:58;65;49;31
24012;PMS7003;12220;50.194;18.948;2024-02-14T07:09:01;57;42;30
24012;PMS7003;12220;50.194;18.948;2024-02-14T07:11:02;68;52;32
24012;PMS7003;12220;50.194;18.948;2024-02-14T07:13:04;75;54;32
24012;PMS7003;12220;50.194;18.948;2024-02-14T07:15:13;68;50;31
24012;PMS7003;12220;50.194;18.948;2024-02-14T07:17:15;69;53;32
24012;PMS7003;12220;50.194;18.948;2024-02-14T07:19:17;69;53;31
24012;PMS7003;12220;50.194;18.948;2024-02-14T07:21:18;74;55;33
24012;PMS7003;12220;50.194;18.948;2024-02-14T07:23:29;71;53;34
24012;PMS7003;12220;50.194;18.948;2024-02-14T07:25:30;68;53;33
24012;PMS7003;12220;50.194;18.948;2024-02-14T07:27:31;68;52;33
24012;PMS7003;12220;50.194;18.948;2024-02-14T07:29:33;73;59;34
24012;PMS7003;12220;50.194;18.948;2024-02-14T07:31:44;75;65;37
24012;PMS7003;12220;50.194;18.948;2024-02-14T07:33:45;82;65;40
24012;PMS7003;12220;50.194;18.948;2024-02-14T07:35:48;82;66;40
24012;PMS7003;12220;50.194;18.948;2024-02-14T07:37:50;80;73;41
24012;PMS7003;12220;50.194;18.948;2024-02-14T07:39:59;80;65;39
24012;PMS7003;12220;50.194;18.948;2024-02-14T07:42:02;78;60;38
24012;PMS7003;12220;50.194;18.948;2024-02-14T07:44:04;74;61;36
24012;PMS7003;12220;50.194;18.948;2024-02-14T07:46:06;77;61;35
24012;PMS7003;12220;50.194;18.948;2024-02-14T07:48:14;74;60;36
24012;PMS7003;12220;50.194;18.948;2024-02-14T07:50:16;81;66;41
24012;PMS7003;12220;50.194;18.948;2024-02-14T07:52:20;72;61;38
24012;PMS7003;12220;50.194;18.948;2024-02-14T07:54:22;71;55;36
24012;PMS7003;12220;50.194;18.948;2024-02-14T07:56:30;76;64;35
24012;PMS7003;12220;50.194;18.948;2024-02-14T07:58:32;72;59;36
24012;PMS7003;12220;50.194;18.948;2024-02-14T08:00:33;73;59;36
24012;PMS7003;12220;50.194;18.948;2024-02-14T08:02:34;74;57;34
24012;PMS7003;12220;50.194;18.948;2024-02-14T08:04:45;77;63;37
24012;PMS7003;12220;50.194;18.948;2024-02-14T08:06:46;76;64;37
24012;PMS7003;12220;50.194;18.948;2024-02-14T08:08:51;76;52;32
24012;PMS7003;12220;50.194;18.948;2024-02-14T08:11:02;79;67;36
24012;PMS7003;12220;50.194;18.948;2024-02-14T08:13:04;75;57;35
24012;PMS7003;12220;50.194;18.948;2024-02-14T08:15:06;78;59;35
24012;PMS7003;12220;50.194;18.948;2024-02-14T08:17:08;72;56;34
24012;PMS7003;12220;50.194;18.948;2024-02-14T08:19:09;72;58;34
24012;PMS7003;12220;50.194;18.948;2024-02-14T08:21:16;67;49;28
24012;PMS7003;12220;50.194;18.948;2024-02-14T08:23:17;71;53;33
24012;PMS7003;12220;50.194;18.948;2024-02-14T08:25:20;61;47;29
24012;PMS7003;12220;50.194;18.948;2024-02-14T08:27:21;67;49;31
24012;PMS7003;12220;50.194;18.948;2024-02-14T08:29:32;62;51;33
24012;PMS7003;12220;50.194;18.948;2024-02-14T08:31:33;70;50;31
24012;PMS7003;12220;50.194;18.948;2024-02-14T08:33:35;65;47;30
24012;PMS7003;12220;50.194;18.948;2024-02-14T08:35:37;59;45;29
24012;PMS7003;12220;50.194;18.948;2024-02-14T08:37:48;70;55;34
24012;PMS7003;12220;50.194;18.948;2024-02-14T08:39:50;65;49;30
24012;PMS7003;12220;50.194;18.948;2024-02-14T08:41:51;65;50;30
24012;PMS7003;12220;50.194;18.948;2024-02-14T08:43:53;53;44;29
24012;PMS7003;12220;50.194;18.948;2024-02-14T08:46:03;55;44;27
24012;PMS7003;12220;50.194;18.948;2024-02-14T08:48:12;60;47;29
24012;PMS7003;12220;50.194;18.948;2024-02-14T08:50:14;58;46;28
24012;PMS7003;12220;50.194;18.948;2024-02-14T08:52:15;53;43;26
24012;PMS7003;12220;50.194;18.948;2024-02-14T08:54:21;55;42;27
24012;PMS7003;12220;50.194;18.948;2024-02-14T08:56:23;58;43;27
24012;PMS7003;12220;50.194;18.948;2024-02-14T08:58:25;52;41;25
24012;PMS7003;12220;50.194;18.948;2024-02-14T09:00:26;43;37;24
24012;PMS7003;12220;50.194;18.948;2024-02-14T09:02:34;47;38;25
24012;PMS7003;12220;50.194;18.948;2024-02-14T09:04:38;40;34;23
24012;PMS7003;12220;50.194;18.948;2024-02-14T09:06:42;32;29;21
24012;PMS7003;12220;50.194;18.948;2024-02-14T09:08:43;38;32;20
24012;PMS7003;12220;50.194;18.948;2024-02-14T09:10:49;40;28;16
24012;PMS7003;12220;50.194;18.948;2024-02-14T09:12:51;31;29;18
24012;PMS7003;12220;50.194;18.948;2024-02-14T09:14:53;27;26;17
24012;PMS7003;12220;50.194;18.948;2024-02-14T09:16:57;29;25;16
24012;PMS7003;12220;50.194;18.948;2024-02-14T09:19:04;25;24;17
24012;PMS7003;12220;50.194;18.948;2024-02-14T09:21:09;32;27;19
24012;PMS7003;12220;50.194;18.948;2024-02-14T09:23:10;29;24;17
24012;PMS7003;12220;50.194;18.948;2024-02-14T09:25:13;26;25;15
24012;PMS7003;12220;50.194;18.948;2024-02-14T09:27:19;27;24;18
24012;PMS7003;12220;50.194;18.948;2024-02-14T09:29:21;34;25;16
24012;PMS7003;12220;50.194;18.948;2024-02-14T09:31:22;35;30;19
24012;PMS7003;12220;50.194;18.948;2024-02-14T09:33:26;24;24;16
24012;PMS7003;12220;50.194;18.948;2024-02-14T09:35:34;26;26;16
24012;PMS7003;12220;50.194;18.948;2024-02-14T09:37:40;30;23;17
24012;PMS7003;12220;50.194;18.948;2024-02-14T09:39:41;31;27;18
24012;PMS7003;12220;50.194;18.948;2024-02-14T09:41:46;29;25;15
24012;PMS7003;12220;50.194;18.948;2024-02-14T09:43:59;25;18;13
24012;PMS7003;12220;50.194;18.948;2024-02-14T09:46:14;20;19;14
24012;PMS7003;12220;50.194;18.948;2024-02-14T09:48:16;12;12;11
24012;PMS7003;12220;50.194;18.948;2024-02-14T09:50:19;26;22;16
24012;PMS7003;12220;50.194;18.948;2024-02-14T09:52:21;21;20;14
24012;PMS7003;12220;50.194;18.948;2024-02-14T09:54:26;24;19;13
24012;PMS7003;12220;50.194;18.948;2024-02-14T09:56:28;25;20;16
24012;PMS7003;12220;50.194;18.948;2024-02-14T09:58:30;29;23;14
24012;PMS7003;12220;50.194;18.948;2024-02-14T10:00:32;41;29;16
24012;PMS7003;12220;50.194;18.948;2024-02-14T10:02:42;22;20;14
24012;PMS7003;12220;50.194;18.948;2024-02-14T10:04:43;19;17;13
24012;PMS7003;12220;50.194;18.948;2024-02-14T10:06:44;29;23;13
24012;PMS7003;12220;50.194;18.948;2024-02-14T10:08:46;23;22;12
24012;PMS7003;12220;50.194;18.948;2024-02-14T10:10:57;19;17;13
24012;PMS7003;12220;50.194;18.948;2024-02-14T10:13:00;22;19;14
24012;PMS7003;12220;50.194;18.948;2024-02-14T10:15:05;17;15;12
24012;PMS7003;12220;50.194;18.948;2024-02-14T10:17:07;12;12;9
24012;PMS7003;12220;50.194;18.948;2024-02-14T10:21:19;10;9;7
24012;PMS7003;12220;50.194;18.948;2024-02-14T10:23:22;35;26;13
24012;PMS7003;12220;50.194;18.948;2024-02-14T10:25:23;12;9;6
24012;PMS7003;12220;50.194;18.948;2024-02-14T10:27:27;16;14;10
24012;PMS7003;12220;50.194;18.948;2024-02-14T10:29:28;9;8;5
24012;PMS7003;12220;50.194;18.948;2024-02-14T10:31:30;11;9;7
24012;PMS7003;12220;50.194;18.948;2024-02-14T10:33:31;7;7;7
24012;PMS7003;12220;50.194;18.948;2024-02-14T10:35:42;10;8;6
24012;PMS7003;12220;50.194;18.948;2024-02-14T10:37:44;7;7;5
24012;PMS7003;12220;50.194;18.948;2024-02-14T10:39:47;8;6;4
24012;PMS7003;12220;50.194;18.948;2024-02-14T10:41:53;4;4;3
24012;PMS7003;12220;50.194;18.948;2024-02-14T10:43:57;5;4;4
24012;PMS7003;12220;50.194;18.948;2024-02-14T10:45:59;10;9;6
24012;PMS7003;12220;50.194;18.948;2024-02-14T10:48:08;6;6;5
24012;PMS7003;12220;50.194;18.948;2024-02-14T10:50:13;7;6;5
24012;PMS7003;12220;50.194;18.948;2024-02-14T10:52:16;6;5;5
24012;PMS7003;12220;50.194;18.948;2024-02-14T10:54:18;7;5;3
24012;PMS7003;12220;50.194;18.948;2024-02-14T10:56:21;5;5;4
24012;PMS7003;12220;50.194;18.948;2024-02-14T10:58:25;4;4;3
24012;PMS7003;12220;50.194;18.948;2024-02-14T11:00:28;5;5;4
24012;PMS7003;12220;50.194;18.948;2024-02-14T11:02:30;4;4;4
24012;PMS7003;12220;50.194;18.948;2024-02-14T11:04:33;4;4;3
24012;PMS7003;12220;50.194;18.948;2024-02-14T11:11:05;4;4;4
24012;PMS7003;12220;50.194;18.948;2024-02-14T11:13:13;4;4;4
24012;PMS7003;12220;50.194;18.948;2024-02-14T11:15:19;7;7;5
24012;PMS7003;12220;50.194;18.948;2024-02-14T11:17:23;4;4;3
24012;PMS7003;12220;50.194;18.948;2024-02-14T11:19:31;3;3;3
24012;PMS7003;12220;50.194;18.948;2024-02-14T11:23:54;7;4;3
24012;PMS7003;12220;50.194;18.948;2024-02-14T11:30:26;4;4;4
24012;PMS7003;12220;50.194;18.948;2024-02-14T11:32:28;11;5;4
24012;PMS7003;12220;50.194;18.948;2024-02-14T11:34:31;7;6;5
24012;PMS7003;12220;50.194;18.948;2024-02-14T11:36:35;7;7;6
24012;PMS7003;12220;50.194;18.948;2024-02-14T11:38:39;3;3;3
24012;PMS7003;12220;50.194;18.948;2024-02-14T11:40:41;7;7;6
24012;PMS7003;12220;50.194;18.948;2024-02-14T11:42:43;7;7;5
24012;PMS7003;12220;50.194;18.948;2024-02-14T11:44:48;6;4;3
24012;PMS7003;12220;50.194;18.948;2024-02-14T11:46:50;9;9;7
24012;PMS7003;12220;50.194;18.948;2024-02-14T11:48:55;8;7;5
24012;PMS7003;12220;50.194;18.948;2024-02-14T11:50:57;7;5;5
24012;PMS7003;12220;50.194;18.948;2024-02-14T11:52:59;6;6;3
24012;PMS7003;12220;50.194;18.948;2024-02-14T11:55:01;10;10;8
24012;PMS7003;12220;50.194;18.948;2024-02-14T11:57:10;11;11;8
24012;PMS7003;12220;50.194;18.948;2024-02-14T11:59:11;9;9;6
24012;PMS7003;12220;50.194;18.948;2024-02-14T12:01:13;8;8;6
24012;PMS7003;12220;50.194;18.948;2024-02-14T12:03:24;13;11;8
24012;PMS7003;12220;50.194;18.948;2024-02-14T12:05:27;12;8;6
24012;PMS7003;12220;50.194;18.948;2024-02-14T12:07:28;14;13;8
24012;PMS7003;12220;50.194;18.948;2024-02-14T12:09:30;12;11;8
24012;PMS7003;12220;50.194;18.948;2024-02-14T12:11:32;16;13;8
24012;PMS7003;12220;50.194;18.948;2024-02-14T12:13:40;12;12;7
24012;PMS7003;12220;50.194;18.948;2024-02-14T12:15:48;14;11;8
24012;PMS7003;12220;50.194;18.948;2024-02-14T12:17:51;5;5;4
24012;PMS7003;12220;50.194;18.948;2024-02-14T12:19:52;8;7;5
24012;PMS7003;12220;50.194;18.948;2024-02-14T12:21:56;8;7;6
24012;PMS7003;12220;50.194;18.948;2024-02-14T12:24:01;11;11;7
24012;PMS7003;12220;50.194;18.948;2024-02-14T12:26:04;8;8;6
24012;PMS7003;12220;50.194;18.948;2024-02-14T12:28:06;4;4;4
24012;PMS7003;12220;50.194;18.948;2024-02-14T12:30:11;4;4;4
24012;PMS7003;12220;50.194;18.948;2024-02-14T12:32:15;10;10;8
24012;PMS7003;12220;50.194;18.948;2024-02-14T12:34:18;8;6;6
24012;PMS7003;12220;50.194;18.948;2024-02-14T12:36:21;10;7;5
24012;PMS7003;12220;50.194;18.948;2024-02-14T12:38:26;10;10;7
24012;PMS7003;12220;50.194;18.948;2024-02-14T12:40:27;7;7;5
24012;PMS7003;12220;50.194;18.948;2024-02-14T12:42:30;12;10;6
24012;PMS7003;12220;50.194;18.948;2024-02-14T12:44:33;14;9;4
24012;PMS7003;12220;50.194;18.948;2024-02-14T12:46:41;8;7;7
24012;PMS7003;12220;50.194;18.948;2024-02-14T12:48:42;9;8;8
24012;PMS7003;12220;50.194;18.948;2024-02-14T12:50:43;9;9;7
24012;PMS7003;12220;50.194;18.948;2024-02-14T12:52:50;8;8;6
24012;PMS7003;12220;50.194;18.948;2024-02-14T12:54:56;11;10;7
24012;PMS7003;12220;50.194;18.948;2024-02-14T12:56:57;9;8;5
24012;PMS7003;12220;50.194;18.948;2024-02-14T12:58:58;9;9;7
24012;PMS7003;12220;50.194;18.948;2024-02-14T13:01:03;9;7;6
24012;PMS7003;12220;50.194;18.948;2024-02-14T13:03:12;7;7;5
24012;PMS7003;12220;50.194;18.948;2024-02-14T13:05:14;15;9;5
24012;PMS7003;12220;50.194;18.948;2024-02-14T13:07:15;7;7;5
24012;PMS7003;12220;50.194;18.948;2024-02-14T13:09:17;10;9;5
24012;PMS7003;12220;50.194;18.948;2024-02-14T13:11:25;9;7;6
24012;PMS7003;12220;50.194;18.948;2024-02-14T13:13:27;7;7;6
24012;PMS7003;12220;50.194;18.948;2024-02-14T13:15:30;10;8;6
24012;PMS7003;12220;50.194;18.948;2024-02-14T13:17:32;10;9;6
24012;PMS7003;12220;50.194;18.948;2024-02-14T13:19:40;6;6;5
24012;PMS7003;12220;50.194;18.948;2024-02-14T13:21:44;7;7;6
24012;PMS7003;12220;50.194;18.948;2024-02-14T13:23:46;5;5;4
24012;PMS7003;12220;50.194;18.948;2024-02-14T13:25:48;7;5;4
24012;PMS7003;12220;50.194;18.948;2024-02-14T13:27:55;7;6;5